Terminal Aerodrome Forecast
Issued by NWS

Home | Current Version | Previous Version | Text Only | Print | Product List | Glossary On
Versions: 1 2 3 4 5 6 7 8 9 10 11 12 13 14 15 16 17 18 19 20 21 22 23 24
000
FTUS41 KOKX 011400 AAA
TAFHPN
TAF AMD
KHPN 011440Z 0115/0212 16005KT P6SM FEW050 SCT250
     FM011900 18009KT P6SM SCT060 BKN150
     FM020000 18004KT P6SM FEW060 BKN150
     FM020400 VRB05KT P6SM VCSH SCT050 BKN100
     FM020900 04005KT 6SM -SHRA BKN050
      AMD NOT SKED=

USA.gov is the U.S. government's official web portal to all federal, state and local government web resources and services.